AIRPORT MAP

 RUNWAY INFORMATION

Runway 14 Runway length 8208 ft Runway width 148 ft
Runway elevation 7 ft Runway displaced threshold 0 ft Runway heading 139
Runway 32 Runway length 8208 ft Runway width 148 ft
Runway elevation 16 ft Runway displaced threshold 0 ft Runway heading 319

 AIRPORT FREQUENCIES

Type ARR Name APP Frequency 118 MHZ
Type TWR Name TWR Frequency 118 MHZ

 AIRPORT NEAR NAVIGATION AIDS

Type NDB Name Tivat Frequency 345 KHZ

 METAR AND TAF INFORMATION

METAR FOR LYTV
ADDS - METARS form results

(0312 UTC 26 January 2020)
Data provider http://aviationweather.gov/metar/data/
 
METAR text: LYTV 260300Z 00000KT 8000 RA SCT033 BKN050 10/09 Q1023
Conditions at: LYTV (TIVAT , CS) observed 0300 UTC 26 January 2020
Temperature: 10.0°C (50°F)
Dewpoint: 9.0°C (48°F) [RH = 93%]
Pressure (altimeter): 30.21 inches Hg (1023.0 mb)
Winds: calm
Visibility: 5 miles ( 8 km)
Ceiling: 5000 feet AGL
Clouds: scattered clouds at 3300 feet AGL
broken clouds at 5000 feet AGL
Weather: RA  (moderate rain)

METAR text: LYTV 260230Z VRB01KT 8000 RA SCT040 OVC073 10/09 Q1023
Conditions at: LYTV (TIVAT , CS) observed 0230 UTC 26 January 2020
Temperature: 10.0°C (50°F)
Dewpoint: 9.0°C (48°F) [RH = 93%]
Pressure (altimeter): 30.21 inches Hg (1023.0 mb)
Winds: variable direction winds at 1 MPH (1 knots; 0.5 m/s)
Visibility: 5 miles ( 8 km)
Ceiling: 7300 feet AGL
Clouds: scattered clouds at 4000 feet AGL
overcast cloud deck at 7300 feet AGL
Weather: RA  (moderate rain)

Forecast for: LYTV (TIVAT , CS)
Text: TAF LYTV 252300Z 2600/2624 16005KT 6000 FEW010 SCT030 BKN050 TX14/2613Z TN04/2605Z
Forecast period: 0000 UTC 26 January 2020 to 0000 UTC 27 January 2020
Forecast type: FROM: standard forecast or significant change
Winds: from the SSE (160 degrees) at 6 MPH (5 knots; 2.6 m/s)
Visibility: 4 miles (6 km)
Ceiling: 5000 feet AGL
Clouds: few clouds at 1000 feet AGL
scattered clouds at 3000 feet AGL
broken clouds at 5000 feet AGL
Weather: no significant weather forecast for this period
Text: TEMPO 2600/2607 2000 -RA BR
Forecast period: 0000 to 0700 UTC 26 January 2020
Forecast type: TEMPORARY: The following changes expected for less than half the time period
Visibility: 1.24 miles (2.00 km)
Ceiling: unknown
Clouds: missing
Weather: -RA BR  (light rain, mist)
Text: TEMPO 2607/2624 5000 RA
Forecast period: 0700 UTC 26 January 2020 to 0000 UTC 27 January 2020
Forecast type: TEMPORARY: The following changes expected for less than half the time period
Visibility: 3 miles (5 km)
Ceiling: unknown
Clouds: missing
Weather: RA  (moderate rain)
Text: PROB40
Forecast period: 0500 to 1200 UTC 26 January 2020
Forecast type: TEMPORARY: The following changes expected for less than half the time period
Visibility: 1.86 miles (2.99 km)
Ceiling: 4000 feet AGL
Clouds: few clouds at 1000 feet AGL
scattered clouds at 2700 feet AGL
broken clouds at 4000 feet AGL
Weather: TSRA  (rain associated with thunderstorm(s))